createdAt,value
2023-05-06T00:04:32.567Z,9.92
2023-05-06T00:09:34.780Z,9.86
2023-05-06T00:14:36.818Z,9.85
2023-05-06T00:19:38.793Z,9.82
2023-05-06T00:24:40.756Z,9.79
2023-05-06T00:29:42.427Z,9.75
2023-05-06T00:34:44.246Z,9.71
2023-05-06T00:39:45.858Z,9.68
2023-05-06T00:44:47.832Z,9.62
2023-05-06T00:49:51.395Z,9.57
2023-05-06T00:54:54.092Z,9.53
2023-05-06T00:59:55.739Z,9.49
2023-05-06T01:04:58.668Z,9.42
2023-05-06T01:10:24.447Z,9.33
2023-05-06T01:15:33.353Z,9.29
2023-05-06T01:20:38.337Z,9.29
2023-05-06T01:25:41.034Z,9.28
2023-05-06T01:30:59.606Z,9.29
2023-05-06T01:36:15.900Z,9.27
2023-05-06T01:41:19.468Z,9.25
2023-05-06T01:46:24.291Z,9.19
2023-05-06T01:51:26.062Z,9.09
2023-05-06T01:56:30.311Z,8.99
2023-05-06T02:01:32.147Z,8.95
2023-05-06T02:06:34.746Z,8.96
2023-05-06T02:11:36.817Z,8.96
2023-05-06T02:16:41.382Z,8.92
2023-05-06T02:21:43.087Z,8.86
2023-05-06T02:26:44.886Z,8.77
2023-05-06T02:31:46.609Z,8.69
2023-05-06T02:36:50.371Z,8.64
2023-05-06T02:41:51.996Z,8.63
2023-05-06T02:46:53.892Z,8.63
2023-05-06T02:51:55.800Z,8.62
2023-05-06T02:56:57.487Z,8.60
2023-05-06T03:01:59.156Z,8.59
2023-05-06T03:07:00.845Z,8.60
2023-05-06T03:12:02.900Z,8.63
2023-05-06T03:17:04.869Z,8.66
2023-05-06T03:22:07.714Z,8.69
2023-05-06T03:27:10.476Z,8.71
2023-05-06T03:32:12.849Z,8.71
2023-05-06T03:37:17.210Z,8.68
2023-05-06T03:42:23.085Z,8.63
2023-05-06T03:47:25.623Z,8.61
2023-05-06T03:52:27.872Z,8.63
2023-05-06T03:57:30.019Z,8.70
2023-05-06T04:02:35.182Z,8.82
2023-05-06T04:07:37.799Z,8.96
2023-05-06T04:12:39.722Z,9.09
2023-05-06T04:17:42.122Z,9.20
2023-05-06T04:22:44.359Z,9.33
2023-05-06T04:27:46.938Z,9.47
2023-05-06T04:32:48.885Z,9.65
2023-05-06T04:37:51.300Z,9.82
2023-05-06T04:42:58.580Z,9.98
2023-05-06T04:48:01.394Z,10.17
2023-05-06T04:53:03.864Z,10.34
2023-05-06T04:58:05.627Z,10.44
2023-05-06T05:03:07.633Z,10.54
2023-05-06T05:08:10.076Z,10.73
2023-05-06T05:13:13.898Z,10.92
2023-05-06T05:18:15.925Z,11.20
2023-05-06T05:23:18.577Z,11.39
2023-05-06T05:28:20.535Z,11.49
2023-05-06T05:33:22.542Z,11.57
2023-05-06T05:38:25.258Z,11.60
2023-05-06T05:43:27.622Z,11.73
2023-05-06T05:48:31.021Z,12.00
2023-05-06T05:53:32.881Z,12.28
2023-05-06T05:58:35.079Z,12.49
2023-05-06T06:03:38.288Z,12.74
2023-05-06T06:08:40.836Z,12.95
2023-05-06T06:13:43.313Z,13.04
2023-05-06T06:18:45.366Z,13.13
2023-05-06T06:23:47.196Z,13.21
2023-05-06T06:28:49.353Z,13.36
2023-05-06T06:33:51.361Z,13.51
2023-05-06T06:38:53.108Z,13.82
2023-05-06T06:43:54.788Z,14.13
2023-05-06T06:49:03.547Z,14.29
2023-05-06T06:54:05.275Z,14.35
2023-05-06T06:59:07.699Z,14.48
2023-05-06T07:04:09.812Z,14.75
2023-05-06T07:09:12.050Z,14.95
2023-05-06T07:14:13.871Z,15.10
2023-05-06T07:19:15.593Z,15.16
2023-05-06T07:24:17.364Z,15.13
2023-05-06T07:29:19.068Z,15.02
2023-05-06T07:34:20.788Z,15.01
2023-05-06T07:39:22.628Z,14.88
2023-05-06T07:44:24.294Z,14.81
2023-05-06T07:49:28.737Z,14.83
2023-05-06T07:54:31.795Z,14.85
2023-05-06T07:59:33.708Z,14.80
2023-05-06T08:04:36.141Z,14.74
2023-05-06T08:09:38.007Z,14.83
2023-05-06T08:14:39.657Z,14.89
2023-05-06T08:19:41.259Z,14.92
2023-05-06T08:24:43.211Z,14.97
2023-05-06T08:29:44.876Z,15.05
2023-05-06T08:34:46.785Z,15.10
2023-05-06T08:39:48.488Z,15.16
2023-05-06T08:44:52.293Z,15.21
2023-05-06T08:49:53.979Z,15.32
2023-05-06T08:55:01.358Z,15.18
2023-05-06T09:00:04.930Z,14.82
2023-05-06T09:05:08.203Z,14.60
2023-05-06T09:10:14.389Z,14.52
2023-05-06T09:15:16.494Z,14.51
2023-05-06T09:20:18.159Z,14.50
2023-05-06T09:25:20.462Z,14.37
2023-05-06T09:30:22.153Z,14.25
2023-05-06T09:35:28.999Z,14.20
2023-05-06T09:40:31.711Z,14.18
2023-05-06T09:45:33.577Z,14.08
2023-05-06T09:50:36.583Z,14.01
2023-05-06T09:55:39.735Z,13.82
2023-05-06T10:00:42.304Z,13.64
2023-05-06T10:05:46.145Z,13.43
2023-05-06T10:10:49.899Z,13.11
2023-05-06T10:15:52.643Z,12.85
2023-05-06T10:20:55.516Z,12.62
2023-05-06T10:26:01.200Z,12.43
2023-05-06T10:31:05.169Z,12.40
2023-05-06T10:36:22.576Z,12.42
2023-05-06T10:41:27.815Z,12.44
2023-05-06T10:46:30.097Z,12.47
2023-05-06T10:51:31.725Z,12.49
2023-05-06T10:56:35.860Z,12.61
2023-05-06T11:01:40.069Z,12.65
2023-05-06T11:06:47.738Z,12.63
2023-05-06T11:12:03.918Z,12.60
2023-05-06T11:17:28.486Z,12.58
2023-05-06T11:22:40.912Z,12.51
2023-05-06T11:27:42.734Z,12.56
2023-05-06T11:32:46.851Z,12.55
2023-05-06T11:37:48.645Z,12.54
2023-05-06T11:42:50.407Z,12.41
2023-05-06T11:47:54.605Z,12.49
2023-05-06T11:52:56.355Z,12.50
2023-05-06T11:57:58.229Z,12.55
2023-05-06T12:02:59.918Z,12.65
2023-05-06T12:08:01.839Z,12.77
2023-05-06T12:13:05.816Z,12.85
2023-05-06T12:18:07.728Z,12.87
2023-05-06T12:23:14.716Z,12.84
2023-05-06T12:28:22.767Z,12.89
2023-05-06T12:33:24.400Z,13.02
2023-05-06T12:38:26.057Z,12.99
2023-05-06T12:43:32.849Z,13.11
2023-05-06T12:48:34.849Z,13.13
2023-05-06T12:53:36.600Z,13.08
2023-05-06T12:58:39.813Z,13.09
2023-05-06T13:03:41.692Z,13.16
2023-05-06T13:08:43.877Z,13.40
2023-05-06T13:13:45.550Z,13.82
2023-05-06T13:18:47.222Z,14.28
2023-05-06T13:23:49.425Z,14.40
2023-05-06T13:28:51.624Z,14.46
2023-05-06T13:33:53.262Z,14.59
2023-05-06T13:38:55.135Z,14.95
2023-05-06T13:43:56.870Z,15.19
2023-05-06T13:48:58.637Z,15.37
2023-05-06T13:54:01.256Z,15.45
2023-05-06T13:59:02.903Z,15.57
2023-05-06T14:04:04.777Z,15.58
2023-05-06T14:09:06.776Z,15.63
2023-05-06T14:14:08.440Z,15.87
2023-05-06T14:19:10.272Z,16.16
2023-05-06T14:24:12.579Z,16.80
2023-05-06T14:29:14.273Z,17.16
2023-05-06T14:34:15.959Z,17.30
2023-05-06T14:39:17.668Z,17.44
2023-05-06T14:44:19.316Z,17.36
2023-05-06T14:49:21.305Z,17.21
2023-05-06T14:54:23.067Z,17.30
2023-05-06T14:59:24.687Z,17.44
2023-05-06T15:04:27.424Z,17.34
2023-05-06T15:09:29.197Z,16.95
2023-05-06T15:14:30.986Z,16.89
2023-05-06T15:19:33.480Z,17.00
2023-05-06T15:24:35.984Z,16.91
2023-05-06T15:29:39.301Z,16.69
2023-05-06T15:34:40.962Z,16.47
2023-05-06T15:39:42.849Z,16.32
2023-05-06T15:44:46.722Z,16.21
2023-05-06T15:49:54.795Z,16.22
2023-05-06T15:55:13.511Z,16.43
2023-05-06T16:00:16.558Z,16.44
2023-05-06T16:05:18.243Z,16.69
2023-05-06T16:10:20.062Z,17.07
2023-05-06T16:15:21.771Z,16.96
2023-05-06T16:20:23.467Z,16.75
2023-05-06T16:25:29.178Z,16.74
2023-05-06T16:30:30.914Z,16.56
2023-05-06T16:35:32.966Z,16.23
2023-05-06T16:40:41.548Z,15.76
2023-05-06T16:45:45.270Z,15.38
2023-05-06T16:50:47.087Z,15.16
2023-05-06T16:55:49.575Z,14.94
2023-05-06T17:00:54.047Z,14.84
2023-05-06T17:05:55.717Z,14.75
2023-05-06T17:10:57.490Z,14.78
2023-05-06T17:15:59.305Z,14.75
2023-05-06T17:21:02.115Z,14.62
2023-05-06T17:26:09.657Z,14.52
2023-05-06T17:31:12.213Z,14.41
2023-05-06T17:36:16.716Z,14.26
2023-05-06T17:41:18.389Z,14.06
2023-05-06T17:46:20.316Z,13.91
2023-05-06T17:51:22.271Z,13.66
2023-05-06T17:56:23.901Z,13.35
2023-05-06T18:01:25.545Z,13.03
2023-05-06T18:06:27.881Z,12.65
2023-05-06T18:11:29.647Z,12.58
2023-05-06T18:16:31.689Z,12.42
2023-05-06T18:21:35.012Z,12.32
2023-05-06T18:26:44.862Z,12.32
2023-05-06T18:31:47.816Z,12.34
2023-05-06T18:36:49.934Z,12.38
2023-05-06T18:41:52.782Z,12.28
2023-05-06T18:46:54.483Z,12.20
2023-05-06T18:51:56.169Z,12.11
2023-05-06T18:56:58.656Z,12.04
2023-05-06T19:02:01.919Z,11.95
2023-05-06T19:07:04.369Z,11.78
2023-05-06T19:12:06.152Z,11.69
2023-05-06T19:17:07.885Z,11.70
2023-05-06T19:22:09.521Z,11.71
2023-05-06T19:27:11.206Z,11.73
2023-05-06T19:32:13.070Z,11.73
2023-05-06T19:37:14.845Z,11.70
2023-05-06T19:42:16.567Z,11.68
2023-05-06T19:47:19.436Z,11.66
2023-05-06T19:52:21.240Z,11.68
2023-05-06T19:57:23.364Z,11.71
2023-05-06T20:02:25.388Z,11.71
2023-05-06T20:07:27.217Z,11.71
2023-05-06T20:12:30.155Z,11.54
2023-05-06T20:17:31.922Z,11.66
2023-05-06T20:22:33.580Z,11.70
2023-05-06T20:27:35.279Z,11.70
2023-05-06T20:32:40.394Z,11.65
2023-05-06T20:37:42.530Z,11.58
2023-05-06T20:42:44.169Z,11.48
2023-05-06T20:47:45.935Z,11.38
2023-05-06T20:52:47.754Z,11.32
2023-05-06T20:57:49.953Z,11.33
2023-05-06T21:02:51.895Z,11.29
2023-05-06T21:07:55.355Z,11.25
2023-05-06T21:13:01.432Z,11.26
2023-05-06T21:18:03.439Z,11.24
2023-05-06T21:23:05.283Z,11.28
2023-05-06T21:28:07.033Z,11.33
2023-05-06T21:33:11.363Z,11.32
2023-05-06T21:38:13.317Z,11.30
2023-05-06T21:43:17.978Z,11.28
2023-05-06T21:48:37.771Z,11.20
2023-05-06T21:53:39.409Z,11.15
2023-05-06T21:58:41.123Z,11.12
2023-05-06T22:03:45.318Z,11.04
2023-05-06T22:08:47.212Z,11.02
2023-05-06T22:13:49.035Z,11.01
2023-05-06T22:18:51.866Z,10.99
2023-05-06T22:23:53.598Z,11.01
2023-05-06T22:28:56.253Z,11.03
2023-05-06T22:34:03.554Z,11.03
2023-05-06T22:39:05.606Z,11.03
2023-05-06T22:44:07.468Z,10.99
2023-05-06T22:49:09.876Z,10.92
2023-05-06T22:54:11.724Z,10.91
2023-05-06T22:59:13.701Z,10.89
2023-05-06T23:04:15.874Z,10.84
2023-05-06T23:09:18.534Z,10.74
2023-05-06T23:14:26.918Z,10.64
2023-05-06T23:19:28.602Z,10.51
2023-05-06T23:24:30.279Z,10.40
2023-05-06T23:29:32.054Z,10.35
2023-05-06T23:34:37.079Z,10.18
2023-05-06T23:39:39.208Z,10.14
2023-05-06T23:44:41.611Z,10.13
2023-05-06T23:49:51.321Z,10.11
2023-05-06T23:54:52.989Z,9.96
2023-05-06T23:59:54.678Z,9.89
